sensor_id;sensor_type;location;lat;lon;timestamp;temperature;humidity
74458;SHT31;62896;51.032;3.712;2023-08-06T00:01:27;15;99
74458;SHT31;62896;51.032;3.712;2023-08-06T00:04:47;15;100
74458;SHT31;62896;51.032;3.712;2023-08-06T00:08:07;15;100
74458;SHT31;62896;51.032;3.712;2023-08-06T00:11:27;15;100
74458;SHT31;62896;51.032;3.712;2023-08-06T00:14:49;15.1;100
74458;SHT31;62896;51.032;3.712;2023-08-06T00:18:07;15.1;100
74458;SHT31;62896;51.032;3.712;2023-08-06T00:21:27;15.1;100
74458;SHT31;62896;51.032;3.712;2023-08-06T00:24:47;15.1;100
74458;SHT31;62896;51.032;3.712;2023-08-06T00:28:07;15.1;100
74458;SHT31;62896;51.032;3.712;2023-08-06T00:31:27;15.1;100
74458;SHT31;62896;51.032;3.712;2023-08-06T00:34:47;15.2;100
74458;SHT31;62896;51.032;3.712;2023-08-06T00:38:07;15.2;100
74458;SHT31;62896;51.032;3.712;2023-08-06T00:41:27;15.2;100
74458;SHT31;62896;51.032;3.712;2023-08-06T00:44:47;15.2;99
74458;SHT31;62896;51.032;3.712;2023-08-06T00:48:07;15.2;99
74458;SHT31;62896;51.032;3.712;2023-08-06T00:51:27;15.2;99
74458;SHT31;62896;51.032;3.712;2023-08-06T00:54:47;15.2;98
74458;SHT31;62896;51.032;3.712;2023-08-06T00:58:07;15.2;98
74458;SHT31;62896;51.032;3.712;2023-08-06T01:01:27;15.2;98
74458;SHT31;62896;51.032;3.712;2023-08-06T01:04:47;15.2;98
74458;SHT31;62896;51.032;3.712;2023-08-06T01:08:11;15.2;98
74458;SHT31;62896;51.032;3.712;2023-08-06T01:11:30;15.2;98
74458;SHT31;62896;51.032;3.712;2023-08-06T01:14:48;15.2;99
74458;SHT31;62896;51.032;3.712;2023-08-06T01:18:07;15.2;99
74458;SHT31;62896;51.032;3.712;2023-08-06T01:21:27;15.2;99
74458;SHT31;62896;51.032;3.712;2023-08-06T01:24:48;15.2;99
74458;SHT31;62896;51.032;3.712;2023-08-06T01:28:08;15.2;99
74458;SHT31;62896;51.032;3.712;2023-08-06T01:31:27;15.2;99
74458;SHT31;62896;51.032;3.712;2023-08-06T01:34:47;15.1;100
74458;SHT31;62896;51.032;3.712;2023-08-06T01:38:07;15.1;100
74458;SHT31;62896;51.032;3.712;2023-08-06T01:41:27;15.1;100
74458;SHT31;62896;51.032;3.712;2023-08-06T01:44:47;15.1;100
74458;SHT31;62896;51.032;3.712;2023-08-06T01:48:07;15.1;100
74458;SHT31;62896;51.032;3.712;2023-08-06T01:51:27;15.1;100
74458;SHT31;62896;51.032;3.712;2023-08-06T01:54:47;15.1;100
74458;SHT31;62896;51.032;3.712;2023-08-06T01:58:07;15.1;100
74458;SHT31;62896;51.032;3.712;2023-08-06T02:01:27;15.1;100
74458;SHT31;62896;51.032;3.712;2023-08-06T02:04:47;15.1;100
74458;SHT31;62896;51.032;3.712;2023-08-06T02:08:07;15.1;100
74458;SHT31;62896;51.032;3.712;2023-08-06T02:11:27;15.1;100
74458;SHT31;62896;51.032;3.712;2023-08-06T02:14:47;15.1;100
74458;SHT31;62896;51.032;3.712;2023-08-06T02:18:07;15.1;100
74458;SHT31;62896;51.032;3.712;2023-08-06T02:21:27;15.1;100
74458;SHT31;62896;51.032;3.712;2023-08-06T02:24:48;15.1;100
74458;SHT31;62896;51.032;3.712;2023-08-06T02:28:07;15.1;100
74458;SHT31;62896;51.032;3.712;2023-08-06T02:31:27;15.1;100
74458;SHT31;62896;51.032;3.712;2023-08-06T02:34:47;15.2;99
74458;SHT31;62896;51.032;3.712;2023-08-06T02:38:07;15.2;99
74458;SHT31;62896;51.032;3.712;2023-08-06T02:41:27;15.2;99
74458;SHT31;62896;51.032;3.712;2023-08-06T02:44:47;15;99
74458;SHT31;62896;51.032;3.712;2023-08-06T02:48:07;15;99
74458;SHT31;62896;51.032;3.712;2023-08-06T02:51:27;15;99
74458;SHT31;62896;51.032;3.712;2023-08-06T02:54:47;14.6;98
74458;SHT31;62896;51.032;3.712;2023-08-06T02:58:07;14.6;98
74458;SHT31;62896;51.032;3.712;2023-08-06T03:01:27;14.6;98
74458;SHT31;62896;51.032;3.712;2023-08-06T03:04:47;14.4;99
74458;SHT31;62896;51.032;3.712;2023-08-06T03:08:07;14.4;99
74458;SHT31;62896;51.032;3.712;2023-08-06T03:11:27;14.4;99
74458;SHT31;62896;51.032;3.712;2023-08-06T03:14:47;14.2;100
74458;SHT31;62896;51.032;3.712;2023-08-06T03:18:07;14.2;100
74458;SHT31;62896;51.032;3.712;2023-08-06T03:21:27;14.2;100
74458;SHT31;62896;51.032;3.712;2023-08-06T03:24:49;14.1;100
74458;SHT31;62896;51.032;3.712;2023-08-06T03:28:07;14.1;100
74458;SHT31;62896;51.032;3.712;2023-08-06T03:31:27;14.1;100
74458;SHT31;62896;51.032;3.712;2023-08-06T03:34:47;14.2;100
74458;SHT31;62896;51.032;3.712;2023-08-06T03:38:07;14.2;100
74458;SHT31;62896;51.032;3.712;2023-08-06T03:41:27;14.2;100
74458;SHT31;62896;51.032;3.712;2023-08-06T03:44:47;14.1;100
74458;SHT31;62896;51.032;3.712;2023-08-06T03:48:07;14.1;100
74458;SHT31;62896;51.032;3.712;2023-08-06T03:51:27;14.1;100
74458;SHT31;62896;51.032;3.712;2023-08-06T03:54:47;14.1;100
74458;SHT31;62896;51.032;3.712;2023-08-06T03:58:07;14.1;100
74458;SHT31;62896;51.032;3.712;2023-08-06T04:01:27;14.1;100
74458;SHT31;62896;51.032;3.712;2023-08-06T04:04:47;14;100
74458;SHT31;62896;51.032;3.712;2023-08-06T04:08:07;14;100
74458;SHT31;62896;51.032;3.712;2023-08-06T04:11:27;14;100
74458;SHT31;62896;51.032;3.712;2023-08-06T04:14:47;14;100
74458;SHT31;62896;51.032;3.712;2023-08-06T04:18:07;14;100
74458;SHT31;62896;51.032;3.712;2023-08-06T04:21:27;14;100
74458;SHT31;62896;51.032;3.712;2023-08-06T04:24:47;13.9;100
74458;SHT31;62896;51.032;3.712;2023-08-06T04:28:07;13.9;100
74458;SHT31;62896;51.032;3.712;2023-08-06T04:31:28;13.9;100
74458;SHT31;62896;51.032;3.712;2023-08-06T04:34:47;13.9;100
74458;SHT31;62896;51.032;3.712;2023-08-06T04:38:07;13.9;100
74458;SHT31;62896;51.032;3.712;2023-08-06T04:41:27;13.9;100
74458;SHT31;62896;51.032;3.712;2023-08-06T04:44:47;13.8;100
74458;SHT31;62896;51.032;3.712;2023-08-06T04:48:07;13.8;100
74458;SHT31;62896;51.032;3.712;2023-08-06T04:51:27;13.8;100
74458;SHT31;62896;51.032;3.712;2023-08-06T04:54:47;13.8;100
74458;SHT31;62896;51.032;3.712;2023-08-06T04:58:08;13.8;100
74458;SHT31;62896;51.032;3.712;2023-08-06T05:01:27;13.8;100
74458;SHT31;62896;51.032;3.712;2023-08-06T05:04:47;13.8;100
74458;SHT31;62896;51.032;3.712;2023-08-06T05:08:07;13.8;100
74458;SHT31;62896;51.032;3.712;2023-08-06T05:11:27;13.8;100
74458;SHT31;62896;51.032;3.712;2023-08-06T05:14:47;13.8;100
74458;SHT31;62896;51.032;3.712;2023-08-06T05:18:07;13.8;100
74458;SHT31;62896;51.032;3.712;2023-08-06T05:21:27;13.8;100
74458;SHT31;62896;51.032;3.712;2023-08-06T05:24:47;13.8;100
74458;SHT31;62896;51.032;3.712;2023-08-06T05:28:07;13.8;100
74458;SHT31;62896;51.032;3.712;2023-08-06T05:31:27;13.8;100
74458;SHT31;62896;51.032;3.712;2023-08-06T05:34:47;13.9;100
74458;SHT31;62896;51.032;3.712;2023-08-06T05:38:07;13.9;100
74458;SHT31;62896;51.032;3.712;2023-08-06T05:41:27;13.9;100
74458;SHT31;62896;51.032;3.712;2023-08-06T05:44:47;13.9;100
74458;SHT31;62896;51.032;3.712;2023-08-06T05:48:07;13.9;100
74458;SHT31;62896;51.032;3.712;2023-08-06T05:51:27;13.9;100
74458;SHT31;62896;51.032;3.712;2023-08-06T05:54:47;14;100
74458;SHT31;62896;51.032;3.712;2023-08-06T05:58:07;14;100
74458;SHT31;62896;51.032;3.712;2023-08-06T06:01:27;14;100
74458;SHT31;62896;51.032;3.712;2023-08-06T06:04:47;14;100
74458;SHT31;62896;51.032;3.712;2023-08-06T06:08:07;14;100
74458;SHT31;62896;51.032;3.712;2023-08-06T06:11:27;14;100
74458;SHT31;62896;51.032;3.712;2023-08-06T06:14:47;13.9;100
74458;SHT31;62896;51.032;3.712;2023-08-06T06:18:07;13.9;100
74458;SHT31;62896;51.032;3.712;2023-08-06T06:21:27;13.9;100
74458;SHT31;62896;51.032;3.712;2023-08-06T06:24:47;14;100
74458;SHT31;62896;51.032;3.712;2023-08-06T06:28:07;14;100
74458;SHT31;62896;51.032;3.712;2023-08-06T06:31:27;14;100
74458;SHT31;62896;51.032;3.712;2023-08-06T06:34:47;13.9;100
74458;SHT31;62896;51.032;3.712;2023-08-06T06:38:07;13.9;100
74458;SHT31;62896;51.032;3.712;2023-08-06T06:41:27;13.9;100
74458;SHT31;62896;51.032;3.712;2023-08-06T06:44:47;13.8;100
74458;SHT31;62896;51.032;3.712;2023-08-06T06:48:07;13.8;100
74458;SHT31;62896;51.032;3.712;2023-08-06T06:51:27;13.8;100
74458;SHT31;62896;51.032;3.712;2023-08-06T06:54:47;14.1;100
74458;SHT31;62896;51.032;3.712;2023-08-06T06:58:07;14.1;100
74458;SHT31;62896;51.032;3.712;2023-08-06T07:01:27;14.1;100
74458;SHT31;62896;51.032;3.712;2023-08-06T07:04:47;14;100
74458;SHT31;62896;51.032;3.712;2023-08-06T07:08:07;14;100
74458;SHT31;62896;51.032;3.712;2023-08-06T07:11:27;14;100
74458;SHT31;62896;51.032;3.712;2023-08-06T07:14:47;14.2;100
74458;SHT31;62896;51.032;3.712;2023-08-06T07:18:07;14.2;100
74458;SHT31;62896;51.032;3.712;2023-08-06T07:21:27;14.2;100
74458;SHT31;62896;51.032;3.712;2023-08-06T07:24:47;14.3;100
74458;SHT31;62896;51.032;3.712;2023-08-06T07:28:07;14.3;100
74458;SHT31;62896;51.032;3.712;2023-08-06T07:31:27;14.3;100
74458;SHT31;62896;51.032;3.712;2023-08-06T07:34:47;14.1;100
74458;SHT31;62896;51.032;3.712;2023-08-06T07:38:07;14.1;100
74458;SHT31;62896;51.032;3.712;2023-08-06T07:41:27;14.1;100
74458;SHT31;62896;51.032;3.712;2023-08-06T07:44:49;14.2;100
74458;SHT31;62896;51.032;3.712;2023-08-06T07:48:07;14.2;100
74458;SHT31;62896;51.032;3.712;2023-08-06T07:51:27;14.2;100
74458;SHT31;62896;51.032;3.712;2023-08-06T07:54:47;14.4;100
74458;SHT31;62896;51.032;3.712;2023-08-06T07:58:07;14.4;100
74458;SHT31;62896;51.032;3.712;2023-08-06T08:01:27;14.4;100
74458;SHT31;62896;51.032;3.712;2023-08-06T08:04:47;14.6;100
74458;SHT31;62896;51.032;3.712;2023-08-06T08:08:07;14.6;100
74458;SHT31;62896;51.032;3.712;2023-08-06T08:11:27;14.6;100
74458;SHT31;62896;51.032;3.712;2023-08-06T08:14:47;14.7;100
74458;SHT31;62896;51.032;3.712;2023-08-06T08:18:07;14.7;100
74458;SHT31;62896;51.032;3.712;2023-08-06T08:21:27;14.7;100
74458;SHT31;62896;51.032;3.712;2023-08-06T08:24:47;14.6;100
74458;SHT31;62896;51.032;3.712;2023-08-06T08:28:07;14.6;100
74458;SHT31;62896;51.032;3.712;2023-08-06T08:31:27;14.6;100
74458;SHT31;62896;51.032;3.712;2023-08-06T08:34:47;14.6;100
74458;SHT31;62896;51.032;3.712;2023-08-06T08:38:07;14.6;100
74458;SHT31;62896;51.032;3.712;2023-08-06T08:41:27;14.6;100
74458;SHT31;62896;51.032;3.712;2023-08-06T08:44:47;14.6;100
74458;SHT31;62896;51.032;3.712;2023-08-06T08:48:07;14.6;100
74458;SHT31;62896;51.032;3.712;2023-08-06T08:51:27;14.6;100
74458;SHT31;62896;51.032;3.712;2023-08-06T08:54:47;14.5;100
74458;SHT31;62896;51.032;3.712;2023-08-06T08:58:07;14.5;100
74458;SHT31;62896;51.032;3.712;2023-08-06T09:01:27;14.5;100
74458;SHT31;62896;51.032;3.712;2023-08-06T09:04:47;14.4;100
74458;SHT31;62896;51.032;3.712;2023-08-06T09:08:07;14.4;100
74458;SHT31;62896;51.032;3.712;2023-08-06T09:11:27;14.4;100
74458;SHT31;62896;51.032;3.712;2023-08-06T09:14:47;14.6;100
74458;SHT31;62896;51.032;3.712;2023-08-06T09:18:09;14.6;100
74458;SHT31;62896;51.032;3.712;2023-08-06T09:21:27;14.6;100
74458;SHT31;62896;51.032;3.712;2023-08-06T09:24:47;14.6;100
74458;SHT31;62896;51.032;3.712;2023-08-06T09:28:07;14.6;100
74458;SHT31;62896;51.032;3.712;2023-08-06T09:31:32;14.6;100
74458;SHT31;62896;51.032;3.712;2023-08-06T09:34:48;14.5;100
74458;SHT31;62896;51.032;3.712;2023-08-06T09:38:08;14.5;100
74458;SHT31;62896;51.032;3.712;2023-08-06T09:41:27;14.5;100
74458;SHT31;62896;51.032;3.712;2023-08-06T09:44:47;14.3;100
74458;SHT31;62896;51.032;3.712;2023-08-06T09:48:08;14.3;100
74458;SHT31;62896;51.032;3.712;2023-08-06T09:51:27;14.3;100
74458;SHT31;62896;51.032;3.712;2023-08-06T09:54:47;14;100
74458;SHT31;62896;51.032;3.712;2023-08-06T09:58:07;14;100
74458;SHT31;62896;51.032;3.712;2023-08-06T10:01:27;14;100
74458;SHT31;62896;51.032;3.712;2023-08-06T10:04:47;14.1;100
74458;SHT31;62896;51.032;3.712;2023-08-06T10:08:07;14.1;100
74458;SHT31;62896;51.032;3.712;2023-08-06T10:11:27;14.1;100
74458;SHT31;62896;51.032;3.712;2023-08-06T10:14:47;15.1;97
74458;SHT31;62896;51.032;3.712;2023-08-06T10:18:07;15.1;97
74458;SHT31;62896;51.032;3.712;2023-08-06T10:21:27;15.1;97
74458;SHT31;62896;51.032;3.712;2023-08-06T10:24:48;15.9;86
74458;SHT31;62896;51.032;3.712;2023-08-06T10:28:08;15.9;86
74458;SHT31;62896;51.032;3.712;2023-08-06T10:31:53;15.9;86
74458;SHT31;62896;51.032;3.712;2023-08-06T10:34:52;15.9;83
74458;SHT31;62896;51.032;3.712;2023-08-06T10:38:08;15.9;83
74458;SHT31;62896;51.032;3.712;2023-08-06T10:41:28;15.9;83
74458;SHT31;62896;51.032;3.712;2023-08-06T10:45:19;16.4;83
74458;SHT31;62896;51.032;3.712;2023-08-06T10:48:07;16.4;83
74458;SHT31;62896;51.032;3.712;2023-08-06T10:51:27;16.4;83
74458;SHT31;62896;51.032;3.712;2023-08-06T10:54:47;16.1;83
74458;SHT31;62896;51.032;3.712;2023-08-06T10:58:07;16.1;83
74458;SHT31;62896;51.032;3.712;2023-08-06T11:01:28;16.1;83
74458;SHT31;62896;51.032;3.712;2023-08-06T11:04:47;15.5;87
74458;SHT31;62896;51.032;3.712;2023-08-06T11:08:07;15.5;87
74458;SHT31;62896;51.032;3.712;2023-08-06T11:11:27;15.5;87
74458;SHT31;62896;51.032;3.712;2023-08-06T11:14:49;14.6;94
74458;SHT31;62896;51.032;3.712;2023-08-06T11:18:07;14.6;94
74458;SHT31;62896;51.032;3.712;2023-08-06T11:21:27;14.6;94
74458;SHT31;62896;51.032;3.712;2023-08-06T11:24:47;14.3;98
74458;SHT31;62896;51.032;3.712;2023-08-06T11:28:07;14.3;98
74458;SHT31;62896;51.032;3.712;2023-08-06T11:31:27;14.3;98
74458;SHT31;62896;51.032;3.712;2023-08-06T11:34:47;14.7;97
74458;SHT31;62896;51.032;3.712;2023-08-06T11:38:07;14.7;97
74458;SHT31;62896;51.032;3.712;2023-08-06T11:41:28;14.7;97
74458;SHT31;62896;51.032;3.712;2023-08-06T11:44:47;15.3;92
74458;SHT31;62896;51.032;3.712;2023-08-06T11:48:07;15.3;92
74458;SHT31;62896;51.032;3.712;2023-08-06T11:51:27;15.3;92
74458;SHT31;62896;51.032;3.712;2023-08-06T11:54:49;16.1;85
74458;SHT31;62896;51.032;3.712;2023-08-06T11:58:08;16.1;85
74458;SHT31;62896;51.032;3.712;2023-08-06T12:01:27;16.1;85
74458;SHT31;62896;51.032;3.712;2023-08-06T12:05:04;15.5;90
74458;SHT31;62896;51.032;3.712;2023-08-06T12:08:08;15.5;90
74458;SHT31;62896;51.032;3.712;2023-08-06T12:11:27;15.5;90
74458;SHT31;62896;51.032;3.712;2023-08-06T12:14:47;15.7;89
74458;SHT31;62896;51.032;3.712;2023-08-06T12:18:07;15.7;89
74458;SHT31;62896;51.032;3.712;2023-08-06T12:21:27;15.7;89
74458;SHT31;62896;51.032;3.712;2023-08-06T12:24:47;15.9;85
74458;SHT31;62896;51.032;3.712;2023-08-06T12:28:07;15.9;85
74458;SHT31;62896;51.032;3.712;2023-08-06T12:31:27;15.9;85
74458;SHT31;62896;51.032;3.712;2023-08-06T12:34:47;15.9;87
74458;SHT31;62896;51.032;3.712;2023-08-06T12:38:07;15.9;87
74458;SHT31;62896;51.032;3.712;2023-08-06T12:41:27;15.9;87
74458;SHT31;62896;51.032;3.712;2023-08-06T12:44:48;16;90
74458;SHT31;62896;51.032;3.712;2023-08-06T12:48:07;16;90
74458;SHT31;62896;51.032;3.712;2023-08-06T12:51:27;16;90
74458;SHT31;62896;51.032;3.712;2023-08-06T12:54:47;16.6;82
74458;SHT31;62896;51.032;3.712;2023-08-06T12:58:07;16.6;82
74458;SHT31;62896;51.032;3.712;2023-08-06T13:01:27;16.6;82
74458;SHT31;62896;51.032;3.712;2023-08-06T13:04:47;16.6;84
74458;SHT31;62896;51.032;3.712;2023-08-06T13:08:08;16.6;84
74458;SHT31;62896;51.032;3.712;2023-08-06T13:11:28;16.6;84
74458;SHT31;62896;51.032;3.712;2023-08-06T13:14:47;16.5;83
74458;SHT31;62896;51.032;3.712;2023-08-06T13:18:08;16.5;83
74458;SHT31;62896;51.032;3.712;2023-08-06T13:21:31;16.5;83
74458;SHT31;62896;51.032;3.712;2023-08-06T13:24:48;16;86
74458;SHT31;62896;51.032;3.712;2023-08-06T13:28:08;16;86
74458;SHT31;62896;51.032;3.712;2023-08-06T13:31:28;16;86
74458;SHT31;62896;51.032;3.712;2023-08-06T13:34:48;15.8;84
74458;SHT31;62896;51.032;3.712;2023-08-06T13:38:08;15.8;84
74458;SHT31;62896;51.032;3.712;2023-08-06T13:41:28;15.8;84
74458;SHT31;62896;51.032;3.712;2023-08-06T13:44:48;16;83
74458;SHT31;62896;51.032;3.712;2023-08-06T13:48:08;16;83
74458;SHT31;62896;51.032;3.712;2023-08-06T13:51:28;16;83
74458;SHT31;62896;51.032;3.712;2023-08-06T13:54:48;16;85
74458;SHT31;62896;51.032;3.712;2023-08-06T13:58:08;16;85
74458;SHT31;62896;51.032;3.712;2023-08-06T14:01:28;16;85
74458;SHT31;62896;51.032;3.712;2023-08-06T14:04:48;16.2;85
74458;SHT31;62896;51.032;3.712;2023-08-06T14:08:08;16.2;85
74458;SHT31;62896;51.032;3.712;2023-08-06T14:11:28;16.2;85
74458;SHT31;62896;51.032;3.712;2023-08-06T14:14:48;17;82
74458;SHT31;62896;51.032;3.712;2023-08-06T14:18:08;17;82
74458;SHT31;62896;51.032;3.712;2023-08-06T14:21:28;17;82
74458;SHT31;62896;51.032;3.712;2023-08-06T14:24:48;18;76
74458;SHT31;62896;51.032;3.712;2023-08-06T14:28:08;18;76
74458;SHT31;62896;51.032;3.712;2023-08-06T14:31:28;18;76
74458;SHT31;62896;51.032;3.712;2023-08-06T14:34:48;18.3;73
74458;SHT31;62896;51.032;3.712;2023-08-06T14:38:08;18.3;73
74458;SHT31;62896;51.032;3.712;2023-08-06T14:41:28;18.3;73
74458;SHT31;62896;51.032;3.712;2023-08-06T14:44:48;18.3;68
74458;SHT31;62896;51.032;3.712;2023-08-06T14:48:08;18.3;68
74458;SHT31;62896;51.032;3.712;2023-08-06T14:51:28;18.3;68
74458;SHT31;62896;51.032;3.712;2023-08-06T14:54:48;18.5;67
74458;SHT31;62896;51.032;3.712;2023-08-06T14:58:08;18.5;67
74458;SHT31;62896;51.032;3.712;2023-08-06T15:01:28;18.5;67
74458;SHT31;62896;51.032;3.712;2023-08-06T15:04:48;18.2;68
74458;SHT31;62896;51.032;3.712;2023-08-06T15:08:08;18.2;68
74458;SHT31;62896;51.032;3.712;2023-08-06T15:11:28;18.2;68
74458;SHT31;62896;51.032;3.712;2023-08-06T15:14:48;18.4;71
74458;SHT31;62896;51.032;3.712;2023-08-06T15:18:08;18.4;71
74458;SHT31;62896;51.032;3.712;2023-08-06T15:21:28;18.4;71
74458;SHT31;62896;51.032;3.712;2023-08-06T15:24:48;18.9;71
74458;SHT31;62896;51.032;3.712;2023-08-06T15:28:08;18.9;71
74458;SHT31;62896;51.032;3.712;2023-08-06T15:31:35;18.9;71
74458;SHT31;62896;51.032;3.712;2023-08-06T15:34:48;18.5;69
74458;SHT31;62896;51.032;3.712;2023-08-06T15:38:08;18.5;69
74458;SHT31;62896;51.032;3.712;2023-08-06T15:41:28;18.5;69
74458;SHT31;62896;51.032;3.712;2023-08-06T15:44:48;18.1;69
74458;SHT31;62896;51.032;3.712;2023-08-06T15:48:08;18.1;69
74458;SHT31;62896;51.032;3.712;2023-08-06T15:51:28;18.1;69
74458;SHT31;62896;51.032;3.712;2023-08-06T15:54:48;17.8;67
74458;SHT31;62896;51.032;3.712;2023-08-06T15:58:08;17.8;67
74458;SHT31;62896;51.032;3.712;2023-08-06T16:01:28;17.8;67
74458;SHT31;62896;51.032;3.712;2023-08-06T16:04:48;18.2;67
74458;SHT31;62896;51.032;3.712;2023-08-06T16:08:08;18.2;67
74458;SHT31;62896;51.032;3.712;2023-08-06T16:11:28;18.2;67
74458;SHT31;62896;51.032;3.712;2023-08-06T16:14:48;18.8;65
74458;SHT31;62896;51.032;3.712;2023-08-06T16:18:08;18.8;65
74458;SHT31;62896;51.032;3.712;2023-08-06T16:21:28;18.8;65
74458;SHT31;62896;51.032;3.712;2023-08-06T16:24:48;18.4;67
74458;SHT31;62896;51.032;3.712;2023-08-06T16:28:08;18.4;67
74458;SHT31;62896;51.032;3.712;2023-08-06T16:31:28;18.4;67
74458;SHT31;62896;51.032;3.712;2023-08-06T16:34:48;18.1;71
74458;SHT31;62896;51.032;3.712;2023-08-06T16:38:08;18.1;71
74458;SHT31;62896;51.032;3.712;2023-08-06T16:41:28;18.1;71
74458;SHT31;62896;51.032;3.712;2023-08-06T16:44:48;18.1;72
74458;SHT31;62896;51.032;3.712;2023-08-06T16:48:08;18.1;72
74458;SHT31;62896;51.032;3.712;2023-08-06T16:51:28;18.1;72
74458;SHT31;62896;51.032;3.712;2023-08-06T16:54:48;17.5;72
74458;SHT31;62896;51.032;3.712;2023-08-06T16:58:08;17.5;72
74458;SHT31;62896;51.032;3.712;2023-08-06T17:01:28;17.5;72
74458;SHT31;62896;51.032;3.712;2023-08-06T17:04:48;17.6;71
74458;SHT31;62896;51.032;3.712;2023-08-06T17:08:08;17.6;71
74458;SHT31;62896;51.032;3.712;2023-08-06T17:11:29;17.6;71
74458;SHT31;62896;51.032;3.712;2023-08-06T17:14:48;17.6;71
74458;SHT31;62896;51.032;3.712;2023-08-06T17:18:08;17.6;71
74458;SHT31;62896;51.032;3.712;2023-08-06T17:21:28;17.6;71
74458;SHT31;62896;51.032;3.712;2023-08-06T17:24:48;17.4;70
74458;SHT31;62896;51.032;3.712;2023-08-06T17:28:08;17.4;70
74458;SHT31;62896;51.032;3.712;2023-08-06T17:31:28;17.4;70
74458;SHT31;62896;51.032;3.712;2023-08-06T17:34:48;17.2;71
74458;SHT31;62896;51.032;3.712;2023-08-06T17:38:08;17.2;71
74458;SHT31;62896;51.032;3.712;2023-08-06T17:41:28;17.2;71
74458;SHT31;62896;51.032;3.712;2023-08-06T17:44:48;17.2;71
74458;SHT31;62896;51.032;3.712;2023-08-06T17:48:08;17.2;71
74458;SHT31;62896;51.032;3.712;2023-08-06T17:51:28;17.2;71
74458;SHT31;62896;51.032;3.712;2023-08-06T17:54:48;17.1;71
74458;SHT31;62896;51.032;3.712;2023-08-06T17:58:08;17.1;71
74458;SHT31;62896;51.032;3.712;2023-08-06T18:01:28;17.1;71
74458;SHT31;62896;51.032;3.712;2023-08-06T18:04:48;16.8;71
74458;SHT31;62896;51.032;3.712;2023-08-06T18:08:08;16.8;71
74458;SHT31;62896;51.032;3.712;2023-08-06T18:11:28;16.8;71
74458;SHT31;62896;51.032;3.712;2023-08-06T18:14:48;16.7;73
74458;SHT31;62896;51.032;3.712;2023-08-06T18:18:08;16.7;73
74458;SHT31;62896;51.032;3.712;2023-08-06T18:21:28;16.7;73
74458;SHT31;62896;51.032;3.712;2023-08-06T18:24:48;16.6;74
74458;SHT31;62896;51.032;3.712;2023-08-06T18:28:08;16.6;74
74458;SHT31;62896;51.032;3.712;2023-08-06T18:31:28;16.6;74
74458;SHT31;62896;51.032;3.712;2023-08-06T18:34:48;16.5;73
74458;SHT31;62896;51.032;3.712;2023-08-06T18:38:08;16.5;73
74458;SHT31;62896;51.032;3.712;2023-08-06T18:41:28;16.5;73
74458;SHT31;62896;51.032;3.712;2023-08-06T18:44:48;16.4;73
74458;SHT31;62896;51.032;3.712;2023-08-06T18:48:08;16.4;73
74458;SHT31;62896;51.032;3.712;2023-08-06T18:51:28;16.4;73
74458;SHT31;62896;51.032;3.712;2023-08-06T18:54:48;16.3;74
74458;SHT31;62896;51.032;3.712;2023-08-06T18:58:08;16.3;74
74458;SHT31;62896;51.032;3.712;2023-08-06T19:01:28;16.3;74
74458;SHT31;62896;51.032;3.712;2023-08-06T19:04:48;16.1;75
74458;SHT31;62896;51.032;3.712;2023-08-06T19:08:08;16.1;75
74458;SHT31;62896;51.032;3.712;2023-08-06T19:11:28;16.1;75
74458;SHT31;62896;51.032;3.712;2023-08-06T19:14:48;15.9;76
74458;SHT31;62896;51.032;3.712;2023-08-06T19:18:08;15.9;76
74458;SHT31;62896;51.032;3.712;2023-08-06T19:21:28;15.9;76
74458;SHT31;62896;51.032;3.712;2023-08-06T19:24:48;15.6;78
74458;SHT31;62896;51.032;3.712;2023-08-06T19:28:08;15.6;78
74458;SHT31;62896;51.032;3.712;2023-08-06T19:31:28;15.6;78
74458;SHT31;62896;51.032;3.712;2023-08-06T19:34:48;15.4;79
74458;SHT31;62896;51.032;3.712;2023-08-06T19:38:08;15.4;79
74458;SHT31;62896;51.032;3.712;2023-08-06T19:41:28;15.4;79
74458;SHT31;62896;51.032;3.712;2023-08-06T19:44:48;15.2;79
74458;SHT31;62896;51.032;3.712;2023-08-06T19:48:08;15.2;79
74458;SHT31;62896;51.032;3.712;2023-08-06T19:51:28;15.2;79
74458;SHT31;62896;51.032;3.712;2023-08-06T19:54:48;15.1;80
74458;SHT31;62896;51.032;3.712;2023-08-06T19:58:08;15.1;80
74458;SHT31;62896;51.032;3.712;2023-08-06T20:01:28;15.1;80
74458;SHT31;62896;51.032;3.712;2023-08-06T20:04:48;14.9;81
74458;SHT31;62896;51.032;3.712;2023-08-06T20:08:08;14.9;81
74458;SHT31;62896;51.032;3.712;2023-08-06T20:11:28;14.9;81
74458;SHT31;62896;51.032;3.712;2023-08-06T20:14:48;14.7;81
74458;SHT31;62896;51.032;3.712;2023-08-06T20:18:08;14.7;81
74458;SHT31;62896;51.032;3.712;2023-08-06T20:21:28;14.7;81
74458;SHT31;62896;51.032;3.712;2023-08-06T20:24:48;14.5;82
74458;SHT31;62896;51.032;3.712;2023-08-06T20:28:09;14.5;82
74458;SHT31;62896;51.032;3.712;2023-08-06T20:31:28;14.5;82
74458;SHT31;62896;51.032;3.712;2023-08-06T20:34:48;14.3;83
74458;SHT31;62896;51.032;3.712;2023-08-06T20:38:08;14.3;83
74458;SHT31;62896;51.032;3.712;2023-08-06T20:41:28;14.3;83
74458;SHT31;62896;51.032;3.712;2023-08-06T20:44:48;14.2;84
74458;SHT31;62896;51.032;3.712;2023-08-06T20:48:08;14.2;84
74458;SHT31;62896;51.032;3.712;2023-08-06T20:51:28;14.2;84
74458;SHT31;62896;51.032;3.712;2023-08-06T20:54:48;14;85
74458;SHT31;62896;51.032;3.712;2023-08-06T20:58:08;14;85
74458;SHT31;62896;51.032;3.712;2023-08-06T21:01:28;14;85
74458;SHT31;62896;51.032;3.712;2023-08-06T21:04:48;13.9;86
74458;SHT31;62896;51.032;3.712;2023-08-06T21:08:08;13.9;86
74458;SHT31;62896;51.032;3.712;2023-08-06T21:11:28;13.9;86
74458;SHT31;62896;51.032;3.712;2023-08-06T21:14:48;13.8;86
74458;SHT31;62896;51.032;3.712;2023-08-06T21:18:08;13.8;86
74458;SHT31;62896;51.032;3.712;2023-08-06T21:21:28;13.8;86
74458;SHT31;62896;51.032;3.712;2023-08-06T21:24:49;13.7;87
74458;SHT31;62896;51.032;3.712;2023-08-06T21:28:08;13.7;87
74458;SHT31;62896;51.032;3.712;2023-08-06T21:31:28;13.7;87
74458;SHT31;62896;51.032;3.712;2023-08-06T21:34:48;13.6;87
74458;SHT31;62896;51.032;3.712;2023-08-06T21:38:08;13.6;87
74458;SHT31;62896;51.032;3.712;2023-08-06T21:41:28;13.6;87
74458;SHT31;62896;51.032;3.712;2023-08-06T21:44:48;13.5;87
74458;SHT31;62896;51.032;3.712;2023-08-06T21:48:08;13.5;87
74458;SHT31;62896;51.032;3.712;2023-08-06T21:51:28;13.5;87
74458;SHT31;62896;51.032;3.712;2023-08-06T21:54:48;13.4;87
74458;SHT31;62896;51.032;3.712;2023-08-06T21:58:08;13.4;87
74458;SHT31;62896;51.032;3.712;2023-08-06T22:01:28;13.4;87
74458;SHT31;62896;51.032;3.712;2023-08-06T22:04:48;13.3;87
74458;SHT31;62896;51.032;3.712;2023-08-06T22:08:08;13.3;87
74458;SHT31;62896;51.032;3.712;2023-08-06T22:11:28;13.3;87
74458;SHT31;62896;51.032;3.712;2023-08-06T22:14:48;13.2;88
74458;SHT31;62896;51.032;3.712;2023-08-06T22:18:08;13.2;88
74458;SHT31;62896;51.032;3.712;2023-08-06T22:21:28;13.2;88
74458;SHT31;62896;51.032;3.712;2023-08-06T22:24:48;13.2;87